Terminal Aerodrome Forecast
Issued by NWS State College, PA

Home | Current Version | Previous Version | Text Only | Print | Product List | Glossary On
Versions: 1 2 3 4 5 6 7 8 9 10 11 12 13 14 15 16 17 18 19 20 21 22 23 24 25 26 27 28 29 30 31 32 33 34 35
000
FTUS41 KCTP 200333 AAB
TAFMDT
TAF AMD
KMDT 200333Z 2004/2024 VRB03KT P6SM SKC
     FM200700 32005KT 5SM BR SCT010
      TEMPO 2009/2012 1SM BR BKN010
     FM201300 32005KT P6SM SKC=

USA.gov is the U.S. government's official web portal to all federal, state and local government web resources and services.